TAP452 LPPR-LFPO
Flight info
| Callsign | TAP452 |
|---|---|
| Flight time | N/A |
| Altitude | 36000 |
| Route | TURON9E TURON P600 ASDEB DCT LOTEE DCT AZFIC DCT ERIGA DCT MOKOR UN741 ANG/N0387F270 UN482 DEKJA/N0395F280 UN482 NIMER DCT CAD CAD9E |
| Aircraft | A320/M-SDE3FGHIRWY/LB1 |
Departure
| Time | N/A |
|---|---|
| Airport | Francisco de Sá Carneiro Airport (LPPR) |
Arrival
| Time | 2026-05-03 21:52 |
|---|---|
| Airport | Paris-Orly Airport (LFPO) |
| Time | Latitude | Longitude | Altitude | Speed | Heading |
|---|---|---|---|---|---|
| 2026-05-03 20:15 | 42.56515 | -8.43364 | 26214 ft | 449 kts | 40° |
| 2026-05-03 20:15 | 42.58845 | -8.40601 | 26543 ft | 452 kts | 40° |
| 2026-05-03 20:15 | 42.61228 | -8.37785 | 26882 ft | 454 kts | 40° |
| 2026-05-03 20:15 | 42.63622 | -8.34960 | 27199 ft | 457 kts | 40° |
| 2026-05-03 20:16 | 42.66026 | -8.32113 | 27530 ft | 460 kts | 40° |
| 2026-05-03 20:16 | 42.68443 | -8.29240 | 27842 ft | 462 kts | 40° |
| 2026-05-03 20:16 | 42.70874 | -8.26346 | 28164 ft | 465 kts | 40° |
| 2026-05-03 20:16 | 42.73287 | -8.23474 | 28479 ft | 468 kts | 40° |
| 2026-05-03 20:17 | 42.75748 | -8.20545 | 28780 ft | 470 kts | 40° |
| 2026-05-03 20:17 | 42.78232 | -8.17589 | 29089 ft | 473 kts | 40° |
| 2026-05-03 20:17 | 42.80719 | -8.14630 | 29385 ft | 476 kts | 40° |
| 2026-05-03 20:17 | 42.83217 | -8.11652 | 29665 ft | 478 kts | 40° |
| 2026-05-03 20:18 | 42.85725 | -8.08651 | 29938 ft | 481 kts | 40° |
| 2026-05-03 20:18 | 42.88241 | -8.05630 | 30189 ft | 483 kts | 40° |
| 2026-05-03 20:18 | 42.90167 | -8.03316 | 30359 ft | 485 kts | 40° |
| 2026-05-03 20:18 | 42.92710 | -8.00260 | 30593 ft | 487 kts | 40° |
| 2026-05-03 20:19 | 42.95260 | -7.97194 | 30831 ft | 489 kts | 40° |
| 2026-05-03 20:19 | 42.97821 | -7.94114 | 31092 ft | 490 kts | 40° |
| 2026-05-03 20:19 | 43.00378 | -7.91032 | 31447 ft | 488 kts | 40° |
| 2026-05-03 20:19 | 43.02930 | -7.87959 | 31788 ft | 488 kts | 40° |
| 2026-05-03 20:20 | 43.05442 | -7.84931 | 32121 ft | 487 kts | 40° |
| 2026-05-03 20:20 | 43.07977 | -7.81868 | 32460 ft | 486 kts | 40° |
| 2026-05-03 20:20 | 43.10509 | -7.78806 | 32796 ft | 485 kts | 40° |
| 2026-05-03 20:20 | 43.13037 | -7.75747 | 33131 ft | 484 kts | 40° |
| 2026-05-03 20:21 | 43.15563 | -7.72683 | 33457 ft | 484 kts | 40° |
| 2026-05-03 20:21 | 43.18089 | -7.69614 | 33789 ft | 483 kts | 40° |
| 2026-05-03 20:21 | 43.20598 | -7.66561 | 34099 ft | 482 kts | 40° |
| 2026-05-03 20:21 | 43.23110 | -7.63499 | 34365 ft | 482 kts | 40° |
| 2026-05-03 20:22 | 43.25586 | -7.60481 | 34615 ft | 482 kts | 40° |
| 2026-05-03 20:22 | 43.28093 | -7.57423 | 34851 ft | 482 kts | 40° |
| 2026-05-03 20:22 | 43.30596 | -7.54369 | 35090 ft | 481 kts | 40° |
| 2026-05-03 20:22 | 43.33107 | -7.51302 | 35314 ft | 481 kts | 40° |
| 2026-05-03 20:23 | 43.35584 | -7.48272 | 35537 ft | 481 kts | 40° |
| 2026-05-03 20:23 | 43.38084 | -7.45209 | 35768 ft | 481 kts | 40° |
| 2026-05-03 20:23 | 43.40585 | -7.42136 | 35960 ft | 481 kts | 40° |
| 2026-05-03 20:24 | 43.45567 | -7.36009 | 36028 ft | 478 kts | 40° |
| 2026-05-03 20:24 | 43.50520 | -7.29916 | 36031 ft | 477 kts | 41° |
| 2026-05-03 20:25 | 43.55476 | -7.23800 | 36029 ft | 477 kts | 41° |
| 2026-05-03 20:25 | 43.60393 | -7.17713 | 36027 ft | 477 kts | 41° |
| 2026-05-03 20:26 | 43.65325 | -7.11585 | 36024 ft | 477 kts | 41° |
| 2026-05-03 20:26 | 43.70255 | -7.05452 | 36021 ft | 477 kts | 41° |
| 2026-05-03 20:27 | 43.75185 | -6.99314 | 36019 ft | 477 kts | 41° |
| 2026-05-03 20:27 | 43.80115 | -6.93163 | 36019 ft | 477 kts | 41° |
| 2026-05-03 20:28 | 43.85012 | -6.87031 | 36017 ft | 477 kts | 41° |
| 2026-05-03 20:28 | 43.89939 | -6.80848 | 36016 ft | 477 kts | 41° |
| 2026-05-03 20:29 | 43.94873 | -6.74640 | 36020 ft | 477 kts | 41° |
| 2026-05-03 20:29 | 43.99765 | -6.68477 | 36021 ft | 477 kts | 41° |
| 2026-05-03 20:30 | 44.04691 | -6.62252 | 36023 ft | 477 kts | 41° |
| 2026-05-03 20:30 | 44.09609 | -6.56019 | 36024 ft | 478 kts | 41° |
| 2026-05-03 20:31 | 44.14490 | -6.49813 | 36025 ft | 478 kts | 41° |
| 2026-05-03 20:31 | 44.19412 | -6.43555 | 36016 ft | 477 kts | 42° |
| 2026-05-03 20:32 | 44.24295 | -6.37340 | 36017 ft | 478 kts | 42° |
| 2026-05-03 20:32 | 44.29207 | -6.31061 | 36018 ft | 478 kts | 42° |
| 2026-05-03 20:33 | 44.34110 | -6.24768 | 36021 ft | 479 kts | 42° |
| 2026-05-03 20:33 | 44.38990 | -6.18503 | 36022 ft | 479 kts | 42° |
| 2026-05-03 20:34 | 44.43076 | -6.13257 | 36019 ft | 479 kts | 42° |
| 2026-05-03 20:34 | 44.48785 | -6.05887 | 36017 ft | 479 kts | 42° |
| 2026-05-03 20:35 | 44.52886 | -6.00577 | 36015 ft | 479 kts | 43° |
| 2026-05-03 20:35 | 44.57742 | -5.94268 | 36008 ft | 478 kts | 43° |
| 2026-05-03 20:36 | 44.62640 | -5.87905 | 36008 ft | 479 kts | 43° |
| 2026-05-03 20:36 | 44.67527 | -5.81515 | 36006 ft | 479 kts | 43° |
| 2026-05-03 20:37 | 44.72295 | -5.75037 | 36006 ft | 479 kts | 44° |
| 2026-05-03 20:37 | 44.77046 | -5.68441 | 36006 ft | 479 kts | 45° |
| 2026-05-03 20:38 | 44.81808 | -5.61841 | 36009 ft | 479 kts | 44° |
| 2026-05-03 20:38 | 44.86558 | -5.55298 | 36011 ft | 479 kts | 44° |
| 2026-05-03 20:39 | 44.91345 | -5.48709 | 36010 ft | 479 kts | 44° |
| 2026-05-03 20:39 | 44.96089 | -5.42154 | 36007 ft | 479 kts | 44° |
| 2026-05-03 20:40 | 45.00851 | -5.35535 | 36004 ft | 479 kts | 45° |
| 2026-05-03 20:40 | 45.05613 | -5.28925 | 36002 ft | 479 kts | 45° |
| 2026-05-03 20:41 | 45.10350 | -5.22333 | 36001 ft | 480 kts | 45° |
| 2026-05-03 20:41 | 45.15106 | -5.15674 | 35998 ft | 480 kts | 45° |
| 2026-05-03 20:42 | 45.19852 | -5.09017 | 35996 ft | 480 kts | 45° |
| 2026-05-03 20:42 | 45.24572 | -5.02375 | 35992 ft | 480 kts | 45° |
| 2026-05-03 20:43 | 45.29320 | -4.95687 | 35991 ft | 480 kts | 45° |
| 2026-05-03 20:43 | 45.34067 | -4.88998 | 35987 ft | 480 kts | 45° |
| 2026-05-03 20:44 | 45.38820 | -4.82273 | 35989 ft | 480 kts | 45° |
| 2026-05-03 20:44 | 45.43520 | -4.75597 | 35992 ft | 480 kts | 45° |
| 2026-05-03 20:45 | 45.48256 | -4.68844 | 35989 ft | 480 kts | 45° |
| 2026-05-03 20:45 | 45.52984 | -4.62099 | 35989 ft | 480 kts | 46° |
| 2026-05-03 20:46 | 45.57715 | -4.55331 | 35988 ft | 481 kts | 46° |
| 2026-05-03 20:46 | 45.62422 | -4.48599 | 35987 ft | 481 kts | 46° |
| 2026-05-03 20:47 | 45.67146 | -4.41813 | 35984 ft | 481 kts | 46° |
| 2026-05-03 20:47 | 45.70269 | -4.37306 | 35981 ft | 481 kts | 46° |
| 2026-05-03 20:48 | 45.72413 | -4.34241 | 35978 ft | 481 kts | 46° |
| 2026-05-03 20:48 | 45.77141 | -4.27430 | 35979 ft | 481 kts | 46° |
| 2026-05-03 20:49 | 45.81846 | -4.20584 | 35975 ft | 481 kts | 46° |
| 2026-05-03 20:49 | 45.86551 | -4.13733 | 35980 ft | 482 kts | 46° |
| 2026-05-03 20:50 | 45.91246 | -4.06910 | 35976 ft | 482 kts | 46° |
| 2026-05-03 20:50 | 45.95954 | -4.00023 | 35978 ft | 482 kts | 46° |
| 2026-05-03 20:51 | 46.00633 | -3.93177 | 35974 ft | 482 kts | 46° |
| 2026-05-03 20:51 | 46.05319 | -3.86311 | 35974 ft | 482 kts | 46° |
| 2026-05-03 20:52 | 46.10017 | -3.79385 | 35972 ft | 482 kts | 47° |
| 2026-05-03 20:52 | 46.14717 | -3.72451 | 35969 ft | 482 kts | 47° |
| 2026-05-03 20:53 | 46.19385 | -3.65554 | 35972 ft | 483 kts | 47° |
| 2026-05-03 20:53 | 46.24074 | -3.58608 | 35973 ft | 483 kts | 47° |
| 2026-05-03 20:54 | 46.28765 | -3.51647 | 35975 ft | 483 kts | 47° |
| 2026-05-03 20:54 | 46.35776 | -3.41201 | 35976 ft | 483 kts | 47° |
| 2026-05-03 20:55 | 46.40462 | -3.34190 | 35978 ft | 483 kts | 47° |
| 2026-05-03 20:55 | 46.44737 | -3.27790 | 35976 ft | 483 kts | 47° |
| 2026-05-03 20:56 | 46.49421 | -3.20755 | 35976 ft | 484 kts | 47° |
| 2026-05-03 20:56 | 46.54088 | -3.13704 | 35972 ft | 484 kts | 47° |
| 2026-05-03 20:57 | 46.58226 | -3.06144 | 35976 ft | 480 kts | 62° |
| 2026-05-03 20:57 | 46.61584 | -2.97750 | 35972 ft | 480 kts | 62° |
| 2026-05-03 20:58 | 46.64956 | -2.89359 | 35970 ft | 480 kts | 62° |
| 2026-05-03 20:58 | 46.68332 | -2.80958 | 35967 ft | 480 kts | 62° |
| 2026-05-03 20:59 | 46.71694 | -2.72528 | 35965 ft | 481 kts | 63° |
| 2026-05-03 20:59 | 46.75027 | -2.64130 | 35962 ft | 481 kts | 63° |
| 2026-05-03 21:00 | 46.77809 | -2.57098 | 35957 ft | 481 kts | 63° |
| 2026-05-03 21:00 | 46.81721 | -2.47190 | 35953 ft | 482 kts | 63° |
| 2026-05-03 21:01 | 46.85049 | -2.38740 | 35959 ft | 482 kts | 63° |
| 2026-05-03 21:01 | 46.88452 | -2.30273 | 35954 ft | 483 kts | 61° |
| 2026-05-03 21:02 | 46.92022 | -2.21898 | 35949 ft | 484 kts | 60° |
| 2026-05-03 21:02 | 46.95591 | -2.13605 | 35948 ft | 484 kts | 61° |
| 2026-05-03 21:03 | 46.99133 | -2.05197 | 35944 ft | 484 kts | 62° |
| 2026-05-03 21:03 | 47.02604 | -1.96732 | 35950 ft | 484 kts | 63° |
| 2026-05-03 21:04 | 47.05887 | -1.88183 | 35952 ft | 483 kts | 64° |
| 2026-05-03 21:04 | 47.09126 | -1.79535 | 35953 ft | 484 kts | 64° |
| 2026-05-03 21:05 | 47.12401 | -1.70895 | 35958 ft | 484 kts | 64° |
| 2026-05-03 21:05 | 47.15724 | -1.62264 | 35960 ft | 485 kts | 61° |
| 2026-05-03 21:06 | 47.19656 | -1.54212 | 35960 ft | 488 kts | 56° |
| 2026-05-03 21:06 | 47.23676 | -1.46165 | 35951 ft | 489 kts | 56° |
| 2026-05-03 21:07 | 47.27693 | -1.38061 | 35756 ft | 489 kts | 56° |
| 2026-05-03 21:07 | 47.29694 | -1.34023 | 35465 ft | 482 kts | 56° |
| 2026-05-03 21:07 | 47.31622 | -1.30139 | 35310 ft | 471 kts | 56° |
| 2026-05-03 21:08 | 47.33557 | -1.26235 | 34825 ft | 469 kts | 57° |
| 2026-05-03 21:08 | 47.35474 | -1.22350 | 34349 ft | 467 kts | 57° |
| 2026-05-03 21:08 | 47.37384 | -1.18467 | 33861 ft | 466 kts | 58° |
| 2026-05-03 21:08 | 47.39289 | -1.14589 | 33301 ft | 465 kts | 58° |
| 2026-05-03 21:09 | 47.41163 | -1.10776 | 32771 ft | 463 kts | 57° |
| 2026-05-03 21:09 | 47.43078 | -1.06882 | 32231 ft | 462 kts | 57° |
| 2026-05-03 21:09 | 47.44935 | -1.03101 | 31719 ft | 460 kts | 58° |
| 2026-05-03 21:09 | 47.46805 | -0.99282 | 31344 ft | 454 kts | 58° |
| 2026-05-03 21:10 | 47.48642 | -0.95534 | 31074 ft | 446 kts | 58° |
| 2026-05-03 21:10 | 47.50455 | -0.91789 | 30317 ft | 450 kts | 61° |
| 2026-05-03 21:10 | 47.51927 | -0.87675 | 29254 ft | 453 kts | 73° |
| 2026-05-03 21:10 | 47.52850 | -0.83233 | 28521 ft | 447 kts | 84° |
| 2026-05-03 21:11 | 47.53239 | -0.78790 | 27938 ft | 436 kts | 94° |
| 2026-05-03 21:11 | 47.53155 | -0.74352 | 27376 ft | 428 kts | 100° |
| 2026-05-03 21:11 | 47.52949 | -0.69967 | 26825 ft | 424 kts | 101° |
| 2026-05-03 21:11 | 47.52734 | -0.65622 | 26303 ft | 421 kts | 101° |
| 2026-05-03 21:12 | 47.52520 | -0.61365 | 25796 ft | 418 kts | 100° |
| 2026-05-03 21:12 | 47.52303 | -0.57093 | 25401 ft | 411 kts | 100° |
| 2026-05-03 21:12 | 47.52091 | -0.52922 | 25192 ft | 401 kts | 101° |
| 2026-05-03 21:12 | 47.51885 | -0.48844 | 24967 ft | 392 kts | 101° |
| 2026-05-03 21:13 | 47.51685 | -0.44890 | 24757 ft | 388 kts | 101° |
| 2026-05-03 21:13 | 47.51479 | -0.40920 | 24538 ft | 386 kts | 101° |
| 2026-05-03 21:13 | 47.51269 | -0.36965 | 24322 ft | 385 kts | 101° |
| 2026-05-03 21:13 | 47.51057 | -0.33024 | 24107 ft | 383 kts | 101° |
| 2026-05-03 21:14 | 47.50847 | -0.29089 | 23891 ft | 382 kts | 101° |
| 2026-05-03 21:14 | 47.50640 | -0.25170 | 23676 ft | 381 kts | 100° |
| 2026-05-03 21:14 | 47.50438 | -0.21304 | 23449 ft | 380 kts | 100° |
| 2026-05-03 21:14 | 47.50233 | -0.17405 | 23222 ft | 379 kts | 100° |
| 2026-05-03 21:15 | 47.50024 | -0.13522 | 23012 ft | 378 kts | 101° |
| 2026-05-03 21:15 | 47.49812 | -0.09660 | 22791 ft | 377 kts | 100° |
| 2026-05-03 21:15 | 47.49600 | -0.05806 | 22579 ft | 376 kts | 101° |
| 2026-05-03 21:15 | 47.49387 | -0.01959 | 22369 ft | 374 kts | 101° |
| 2026-05-03 21:16 | 47.49174 | 0.01869 | 22160 ft | 373 kts | 100° |
| 2026-05-03 21:16 | 47.48962 | 0.05699 | 21951 ft | 372 kts | 100° |
| 2026-05-03 21:16 | 47.48755 | 0.09447 | 21735 ft | 371 kts | 100° |
| 2026-05-03 21:16 | 47.48545 | 0.13246 | 21528 ft | 369 kts | 100° |
| 2026-05-03 21:17 | 47.48335 | 0.17030 | 21316 ft | 368 kts | 100° |
| 2026-05-03 21:17 | 47.48192 | 0.19536 | 21175 ft | 367 kts | 100° |
| 2026-05-03 21:17 | 47.47900 | 0.24564 | 20901 ft | 366 kts | 100° |
| 2026-05-03 21:17 | 47.47684 | 0.28313 | 20695 ft | 365 kts | 100° |
| 2026-05-03 21:18 | 47.47700 | 0.32080 | 20496 ft | 370 kts | 87° |
| 2026-05-03 21:18 | 47.48286 | 0.35804 | 20277 ft | 374 kts | 72° |
| 2026-05-03 21:18 | 47.49439 | 0.39258 | 20079 ft | 377 kts | 58° |
| 2026-05-03 21:18 | 47.51046 | 0.42258 | 19868 ft | 377 kts | 50° |
| 2026-05-03 21:19 | 47.52761 | 0.45187 | 19659 ft | 376 kts | 50° |
| 2026-05-03 21:19 | 47.54465 | 0.48116 | 19448 ft | 375 kts | 50° |
| 2026-05-03 21:19 | 47.56161 | 0.51046 | 19229 ft | 373 kts | 50° |
| 2026-05-03 21:19 | 47.57840 | 0.53961 | 19036 ft | 371 kts | 50° |
| 2026-05-03 21:20 | 47.59518 | 0.56879 | 18818 ft | 370 kts | 50° |
| 2026-05-03 21:20 | 47.61168 | 0.59748 | 18610 ft | 368 kts | 50° |
| 2026-05-03 21:20 | 47.62825 | 0.62633 | 18401 ft | 366 kts | 50° |
| 2026-05-03 21:20 | 47.64475 | 0.65508 | 18188 ft | 365 kts | 50° |
| 2026-05-03 21:21 | 47.66116 | 0.68370 | 17965 ft | 363 kts | 50° |
| 2026-05-03 21:21 | 47.67200 | 0.70261 | 17829 ft | 362 kts | 50° |
| 2026-05-03 21:21 | 47.68834 | 0.73115 | 17632 ft | 361 kts | 50° |
| 2026-05-03 21:21 | 47.70977 | 0.76866 | 17363 ft | 359 kts | 50° |
| 2026-05-03 21:22 | 47.72589 | 0.79688 | 17163 ft | 357 kts | 50° |
| 2026-05-03 21:22 | 47.74199 | 0.82507 | 17008 ft | 357 kts | 50° |
| 2026-05-03 21:22 | 47.75261 | 0.84371 | 16887 ft | 356 kts | 50° |
| 2026-05-03 21:22 | 47.76860 | 0.87179 | 16681 ft | 354 kts | 50° |
| 2026-05-03 21:23 | 47.78451 | 0.89976 | 16487 ft | 353 kts | 50° |
| 2026-05-03 21:23 | 47.80036 | 0.92764 | 16279 ft | 351 kts | 50° |
| 2026-05-03 21:23 | 47.81594 | 0.95508 | 16085 ft | 350 kts | 50° |
| 2026-05-03 21:23 | 47.83164 | 0.98277 | 15891 ft | 349 kts | 51° |
| 2026-05-03 21:24 | 47.84727 | 1.01037 | 15691 ft | 348 kts | 51° |
| 2026-05-03 21:24 | 47.86290 | 1.03793 | 15492 ft | 347 kts | 51° |
| 2026-05-03 21:24 | 47.87834 | 1.06513 | 15297 ft | 345 kts | 51° |
| 2026-05-03 21:24 | 47.89383 | 1.09249 | 15110 ft | 344 kts | 51° |
| 2026-05-03 21:25 | 47.90925 | 1.11980 | 14916 ft | 343 kts | 51° |
| 2026-05-03 21:25 | 47.92459 | 1.14704 | 14723 ft | 342 kts | 51° |
| 2026-05-03 21:25 | 47.93987 | 1.17423 | 14530 ft | 341 kts | 51° |
| 2026-05-03 21:25 | 47.95508 | 1.20127 | 14340 ft | 340 kts | 51° |
| 2026-05-03 21:26 | 47.97008 | 1.22794 | 14155 ft | 339 kts | 51° |
| 2026-05-03 21:26 | 47.98522 | 1.25489 | 13954 ft | 337 kts | 51° |
| 2026-05-03 21:26 | 48.00031 | 1.28177 | 13774 ft | 336 kts | 51° |
| 2026-05-03 21:26 | 48.01527 | 1.30851 | 13565 ft | 335 kts | 51° |
| 2026-05-03 21:27 | 48.03019 | 1.33520 | 13380 ft | 334 kts | 51° |
| 2026-05-03 21:27 | 48.04511 | 1.36187 | 13193 ft | 333 kts | 51° |
| 2026-05-03 21:27 | 48.06086 | 1.38714 | 13044 ft | 332 kts | 41° |
| 2026-05-03 21:27 | 48.07944 | 1.40753 | 12973 ft | 332 kts | 33° |
| 2026-05-03 21:28 | 48.09840 | 1.42657 | 12880 ft | 332 kts | 33° |
| 2026-05-03 21:28 | 48.11754 | 1.44587 | 12692 ft | 331 kts | 34° |
| 2026-05-03 21:28 | 48.13663 | 1.46516 | 12431 ft | 329 kts | 33° |
| 2026-05-03 21:28 | 48.15555 | 1.48428 | 12174 ft | 327 kts | 33° |
| 2026-05-03 21:29 | 48.17439 | 1.50333 | 11922 ft | 325 kts | 33° |
| 2026-05-03 21:29 | 48.19313 | 1.52230 | 11666 ft | 324 kts | 33° |
| 2026-05-03 21:29 | 48.21150 | 1.54092 | 11410 ft | 322 kts | 33° |
| 2026-05-03 21:29 | 48.23003 | 1.55983 | 11206 ft | 321 kts | 36° |
| 2026-05-03 21:30 | 48.24639 | 1.58232 | 10994 ft | 318 kts | 50° |
| 2026-05-03 21:30 | 48.25967 | 1.60901 | 10791 ft | 318 kts | 55° |
| 2026-05-03 21:30 | 48.27247 | 1.63601 | 10620 ft | 317 kts | 55° |
| 2026-05-03 21:30 | 48.28512 | 1.66257 | 10444 ft | 316 kts | 55° |
| 2026-05-03 21:31 | 48.29793 | 1.68944 | 10275 ft | 315 kts | 55° |
| 2026-05-03 21:31 | 48.31067 | 1.71618 | 10126 ft | 313 kts | 55° |
| 2026-05-03 21:31 | 48.32291 | 1.74287 | 10006 ft | 308 kts | 62° |
| 2026-05-03 21:31 | 48.33040 | 1.77280 | 10019 ft | 306 kts | 76° |
| 2026-05-03 21:32 | 48.33604 | 1.80367 | 10023 ft | 306 kts | 77° |
| 2026-05-03 21:32 | 48.34143 | 1.83423 | 10024 ft | 306 kts | 77° |
| 2026-05-03 21:32 | 48.34688 | 1.86519 | 10024 ft | 306 kts | 77° |
| 2026-05-03 21:32 | 48.35231 | 1.89611 | 10023 ft | 306 kts | 77° |
| 2026-05-03 21:33 | 48.35775 | 1.92711 | 10029 ft | 306 kts | 77° |
| 2026-05-03 21:33 | 48.36319 | 1.95812 | 10024 ft | 306 kts | 77° |
| 2026-05-03 21:33 | 48.36861 | 1.98906 | 10025 ft | 306 kts | 77° |
| 2026-05-03 21:33 | 48.37404 | 2.02017 | 10023 ft | 306 kts | 77° |
| 2026-05-03 21:34 | 48.37945 | 2.05116 | 10024 ft | 306 kts | 77° |
| 2026-05-03 21:34 | 48.38486 | 2.08215 | 10025 ft | 306 kts | 77° |
| 2026-05-03 21:34 | 48.39021 | 2.11284 | 10026 ft | 306 kts | 77° |
| 2026-05-03 21:34 | 48.39562 | 2.14393 | 10023 ft | 306 kts | 77° |
| 2026-05-03 21:35 | 48.40103 | 2.17509 | 10024 ft | 306 kts | 77° |
| 2026-05-03 21:35 | 48.40642 | 2.20607 | 10026 ft | 306 kts | 77° |
| 2026-05-03 21:35 | 48.41182 | 2.23715 | 10029 ft | 306 kts | 77° |
| 2026-05-03 21:35 | 48.41722 | 2.26816 | 9850 ft | 304 kts | 77° |
| 2026-05-03 21:36 | 48.42247 | 2.29839 | 9512 ft | 302 kts | 77° |
| 2026-05-03 21:36 | 48.42776 | 2.32898 | 9123 ft | 301 kts | 77° |
| 2026-05-03 21:36 | 48.43299 | 2.35937 | 8761 ft | 299 kts | 77° |
| 2026-05-03 21:36 | 48.43819 | 2.38958 | 8397 ft | 297 kts | 77° |
| 2026-05-03 21:37 | 48.44337 | 2.41969 | 8071 ft | 295 kts | 77° |
| 2026-05-03 21:37 | 48.44850 | 2.44961 | 7816 ft | 294 kts | 77° |
| 2026-05-03 21:37 | 48.45361 | 2.47937 | 7458 ft | 292 kts | 77° |
| 2026-05-03 21:37 | 48.45860 | 2.50853 | 7084 ft | 290 kts | 77° |
| 2026-05-03 21:38 | 48.46365 | 2.53797 | 6719 ft | 289 kts | 77° |
| 2026-05-03 21:38 | 48.46865 | 2.56719 | 6356 ft | 287 kts | 77° |
| 2026-05-03 21:38 | 48.47362 | 2.59628 | 5961 ft | 285 kts | 77° |
| 2026-05-03 21:38 | 48.47856 | 2.62532 | 5572 ft | 283 kts | 77° |
| 2026-05-03 21:39 | 48.48336 | 2.65370 | 5195 ft | 282 kts | 77° |
| 2026-05-03 21:39 | 48.48819 | 2.68226 | 4814 ft | 280 kts | 75° |
| 2026-05-03 21:39 | 48.49688 | 2.70824 | 4417 ft | 279 kts | 49° |
| 2026-05-03 21:39 | 48.51222 | 2.72558 | 4076 ft | 273 kts | 25° |
| 2026-05-03 21:40 | 48.52895 | 2.73739 | 4025 ft | 257 kts | 22° |
| 2026-05-03 21:40 | 48.54483 | 2.74806 | 4028 ft | 240 kts | 22° |
| 2026-05-03 21:40 | 48.55963 | 2.75798 | 4028 ft | 227 kts | 22° |
| 2026-05-03 21:40 | 48.57381 | 2.76749 | 4035 ft | 225 kts | 22° |
| 2026-05-03 21:41 | 48.58821 | 2.77713 | 4036 ft | 225 kts | 22° |
| 2026-05-03 21:41 | 48.60254 | 2.78674 | 4043 ft | 225 kts | 22° |
| 2026-05-03 21:41 | 48.61686 | 2.79632 | 3912 ft | 224 kts | 22° |
| 2026-05-03 21:41 | 48.63106 | 2.80586 | 3653 ft | 223 kts | 22° |
| 2026-05-03 21:42 | 48.64507 | 2.81528 | 3422 ft | 222 kts | 22° |
| 2026-05-03 21:42 | 48.65922 | 2.82483 | 3185 ft | 221 kts | 22° |
| 2026-05-03 21:42 | 48.67329 | 2.83432 | 3044 ft | 220 kts | 22° |
| 2026-05-03 21:42 | 48.68714 | 2.84369 | 3032 ft | 221 kts | 22° |
| 2026-05-03 21:43 | 48.70121 | 2.85316 | 3032 ft | 221 kts | 22° |
| 2026-05-03 21:43 | 48.71527 | 2.86262 | 3034 ft | 221 kts | 22° |
| 2026-05-03 21:43 | 48.72940 | 2.87213 | 3034 ft | 221 kts | 22° |
| 2026-05-03 21:43 | 48.74333 | 2.88153 | 3034 ft | 222 kts | 22° |
| 2026-05-03 21:44 | 48.75790 | 2.88837 | 3032 ft | 217 kts | 358° |
| 2026-05-03 21:44 | 48.77150 | 2.88292 | 3047 ft | 194 kts | 321° |
| 2026-05-03 21:44 | 48.78066 | 2.86890 | 3035 ft | 183 kts | 304° |
| 2026-05-03 21:44 | 48.78836 | 2.85361 | 3032 ft | 181 kts | 302° |
| 2026-05-03 21:45 | 48.79566 | 2.83843 | 3029 ft | 180 kts | 299° |
| 2026-05-03 21:45 | 48.80028 | 2.82118 | 3032 ft | 175 kts | 277° |
| 2026-05-03 21:45 | 48.80027 | 2.80299 | 3031 ft | 172 kts | 256° |
| 2026-05-03 21:45 | 48.79715 | 2.78544 | 3033 ft | 172 kts | 253° |
| 2026-05-03 21:46 | 48.79399 | 2.76784 | 3031 ft | 173 kts | 253° |
| 2026-05-03 21:46 | 48.79083 | 2.75028 | 3033 ft | 173 kts | 253° |
| 2026-05-03 21:46 | 48.78765 | 2.73267 | 3031 ft | 173 kts | 253° |
| 2026-05-03 21:46 | 48.78447 | 2.71505 | 3033 ft | 173 kts | 253° |
| 2026-05-03 21:47 | 48.78132 | 2.69764 | 3035 ft | 173 kts | 253° |
| 2026-05-03 21:47 | 48.77812 | 2.67997 | 3034 ft | 173 kts | 253° |
| 2026-05-03 21:47 | 48.77493 | 2.66234 | 3036 ft | 173 kts | 253° |
| 2026-05-03 21:47 | 48.77172 | 2.64466 | 3034 ft | 173 kts | 253° |
| 2026-05-03 21:48 | 48.76852 | 2.62701 | 3034 ft | 171 kts | 253° |
| 2026-05-03 21:48 | 48.76549 | 2.61036 | 3036 ft | 162 kts | 253° |
| 2026-05-03 21:48 | 48.76253 | 2.59406 | 2923 ft | 157 kts | 253° |
| 2026-05-03 21:48 | 48.75969 | 2.57843 | 2766 ft | 150 kts | 253° |
| 2026-05-03 21:49 | 48.75696 | 2.56345 | 2570 ft | 146 kts | 253° |
| 2026-05-03 21:49 | 48.75426 | 2.54866 | 2386 ft | 145 kts | 253° |
| 2026-05-03 21:49 | 48.75162 | 2.53420 | 2195 ft | 144 kts | 253° |
| 2026-05-03 21:49 | 48.74896 | 2.51966 | 2007 ft | 143 kts | 253° |
| 2026-05-03 21:50 | 48.74631 | 2.50514 | 1820 ft | 142 kts | 253° |
| 2026-05-03 21:50 | 48.74366 | 2.49066 | 1628 ft | 142 kts | 253° |
| 2026-05-03 21:50 | 48.74101 | 2.47620 | 1439 ft | 142 kts | 253° |
| 2026-05-03 21:50 | 48.73835 | 2.46168 | 1233 ft | 144 kts | 253° |
| 2026-05-03 21:51 | 48.73566 | 2.44700 | 1025 ft | 145 kts | 253° |
| 2026-05-03 21:51 | 48.73294 | 2.43219 | 827 ft | 146 kts | 252° |
| 2026-05-03 21:51 | 48.73024 | 2.41751 | 636 ft | 146 kts | 252° |
| 2026-05-03 21:51 | 48.72754 | 2.40264 | 432 ft | 146 kts | 253° |
| 2026-05-03 21:52 | 48.72490 | 2.38795 | 300 ft | 137 kts | 253° |
| 2026-05-03 21:52 | 48.72272 | 2.37651 | 295 ft | 88 kts | 254° |
| 2026-05-03 21:52 | 48.72162 | 2.37067 | 291 ft | 28 kts | 256° |
| 2026-05-03 21:52 | 48.72175 | 2.36886 | 293 ft | 17 kts | 277° |
| 2026-05-03 21:53 | 48.72179 | 2.36743 | 291 ft | 4 kts | 272° |
| 2026-05-03 21:53 | 48.72180 | 2.36705 | 291 ft | 3 kts | 272° |
| 2026-05-03 21:53 | 48.72182 | 2.36673 | 291 ft | 3 kts | 276° |
| 2026-05-03 21:53 | 48.72184 | 2.36644 | 291 ft | 3 kts | 276° |
| 2026-05-03 21:54 | 48.72185 | 2.36620 | 291 ft | 3 kts | 275° |
| 2026-05-03 21:54 | 48.72193 | 2.36557 | 292 ft | 7 kts | 287° |
| 2026-05-03 21:54 | 48.72210 | 2.36495 | 293 ft | 6 kts | 295° |
| 2026-05-03 21:54 | 48.72230 | 2.36443 | 291 ft | 6 kts | 302° |
| 2026-05-03 21:55 | 48.72275 | 2.36352 | 290 ft | 14 kts | 317° |
| 2026-05-03 21:55 | 48.72374 | 2.36272 | 294 ft | 16 kts | 338° |
| 2026-05-03 21:55 | 48.72471 | 2.36235 | 293 ft | 13 kts | 352° |
| 2026-05-03 21:55 | 48.72526 | 2.36308 | 294 ft | 10 kts | 72° |
| 2026-05-03 21:56 | 48.72547 | 2.36403 | 295 ft | 9 kts | 72° |
| 2026-05-03 21:56 | 48.72568 | 2.36503 | 294 ft | 10 kts | 72° |
| 2026-05-03 21:56 | 48.72601 | 2.36575 | 296 ft | 8 kts | 22° |
| 2026-05-03 21:56 | 48.72648 | 2.36586 | 293 ft | 6 kts | 7° |
| 2026-05-03 21:57 | 48.72686 | 2.36592 | 294 ft | 5 kts | 5° |
| 2026-05-03 21:57 | 48.72690 | 2.36592 | 294 ft | 0 kts | 5° |